Macomb, Illinois
Current Conditions -  °F | °C
As of 3:35 AM on Sunday 26 Oct 2014 (Local Time) from KMQB Reporting Station
Clear Clear  
Wind Chill: 46°   Ceiling: Unl
Heat Index: 46°   Visibility: 10mi
Dew Point: 37°   Wind: 3mph
Humidity: 71%   Direction: 360°N
Pressure: 30.05"   Gusts: NA
Location:  40.46°N, 90.67°W
Report Text: KMQB 260835Z AUTO 36003KT 10SM CLR 08/03 A3005 RMK AO2 T00750026
Loading
Personal Weather Stations






























Interactive Weather Map New forecast layout! Learn more

10-Day Weather Forecast

Advertisements
Track Severe Weather on mobile